createdAt,value
2022-08-24T00:01:23.095Z,21.92
2022-08-24T00:03:48.044Z,21.97
2022-08-24T00:06:16.100Z,21.99
2022-08-24T00:08:39.879Z,21.98
2022-08-24T00:11:02.175Z,21.99
2022-08-24T00:13:24.003Z,21.98
2022-08-24T00:15:50.753Z,21.95
2022-08-24T00:18:14.064Z,21.92
2022-08-24T00:20:36.109Z,21.87
2022-08-24T00:22:58.719Z,21.83
2022-08-24T00:25:21.018Z,21.78
2022-08-24T00:27:43.063Z,21.74
2022-08-24T00:30:11.024Z,21.70
2022-08-24T00:32:33.137Z,21.67
2022-08-24T00:34:58.353Z,21.64
2022-08-24T00:37:21.346Z,21.63
2022-08-24T00:39:43.267Z,21.61
2022-08-24T00:42:05.447Z,21.59
2022-08-24T00:44:27.312Z,21.56
2022-08-24T00:47:04.594Z,21.54
2022-08-24T00:50:02.804Z,21.51
2022-08-24T00:52:41.270Z,21.46
2022-08-24T00:55:20.377Z,21.44
2022-08-24T00:57:49.258Z,21.42
2022-08-24T01:00:23.466Z,21.36
2022-08-24T01:02:51.459Z,21.31
2022-08-24T01:05:16.455Z,21.28
2022-08-24T01:07:40.536Z,21.26
2022-08-24T01:10:09.997Z,21.25
2022-08-24T01:12:35.640Z,21.23
2022-08-24T01:15:00.903Z,21.21
2022-08-24T01:17:42.607Z,21.19
2022-08-24T01:20:07.019Z,21.19
2022-08-24T01:22:56.823Z,21.22
2022-08-24T01:25:19.323Z,21.23
2022-08-24T01:27:44.175Z,21.24
2022-08-24T01:30:11.617Z,21.25
2022-08-24T01:32:33.546Z,21.24
2022-08-24T01:34:57.516Z,21.22
2022-08-24T01:37:19.579Z,21.19
2022-08-24T01:39:47.698Z,21.14
2022-08-24T01:42:11.804Z,21.11
2022-08-24T01:44:40.730Z,21.06
2022-08-24T01:47:08.312Z,21.02
2022-08-24T01:49:34.983Z,20.99
2022-08-24T01:51:58.247Z,20.97
2022-08-24T01:54:20.484Z,20.94
2022-08-24T01:56:42.900Z,20.87
2022-08-24T01:59:07.506Z,20.83
2022-08-24T02:01:35.575Z,20.77
2022-08-24T02:04:04.375Z,20.70
2022-08-24T02:06:27.331Z,20.61
2022-08-24T02:08:49.359Z,20.53
2022-08-24T02:11:12.603Z,20.47
2022-08-24T02:13:39.154Z,20.43
2022-08-24T02:16:01.838Z,20.39
2022-08-24T02:18:26.973Z,20.36
2022-08-24T02:20:49.015Z,20.33
2022-08-24T02:23:11.281Z,20.32
2022-08-24T02:25:33.692Z,20.30
2022-08-24T02:27:57.847Z,20.30
2022-08-24T02:30:20.232Z,20.28
2022-08-24T02:32:42.666Z,20.28
2022-08-24T02:35:05.376Z,20.25
2022-08-24T02:37:27.291Z,20.21
2022-08-24T02:39:49.410Z,20.16
2022-08-24T02:42:15.641Z,20.11
2022-08-24T02:44:37.457Z,20.04
2022-08-24T02:47:00.542Z,19.97
2022-08-24T02:49:23.202Z,19.91
2022-08-24T02:51:47.452Z,19.85
2022-08-24T02:54:19.495Z,19.80
2022-08-24T02:56:43.860Z,19.74
2022-08-24T02:59:06.051Z,19.70
2022-08-24T03:01:30.299Z,19.67
2022-08-24T03:03:53.257Z,19.67
2022-08-24T03:06:15.434Z,19.68
2022-08-24T03:08:38.962Z,19.70
2022-08-24T03:11:02.952Z,19.73
2022-08-24T03:13:26.159Z,19.73
2022-08-24T03:15:48.061Z,19.73
2022-08-24T03:18:09.886Z,19.73
2022-08-24T03:20:32.051Z,19.74
2022-08-24T03:22:54.003Z,19.73
2022-08-24T03:25:19.355Z,19.72
2022-08-24T03:27:41.775Z,19.69
2022-08-24T03:30:07.753Z,19.66
2022-08-24T03:32:30.271Z,19.61
2022-08-24T03:34:52.411Z,19.59
2022-08-24T03:37:16.364Z,19.59
2022-08-24T03:39:39.277Z,19.57
2022-08-24T03:42:01.431Z,19.56
2022-08-24T03:44:25.763Z,19.53
2022-08-24T03:46:49.156Z,19.53
2022-08-24T03:49:11.709Z,19.51
2022-08-24T03:51:37.055Z,19.47
2022-08-24T03:54:00.531Z,19.44
2022-08-24T03:56:23.649Z,19.42
2022-08-24T03:58:47.373Z,19.38
2022-08-24T04:01:10.254Z,19.35
2022-08-24T04:03:37.779Z,19.33
2022-08-24T04:06:01.282Z,19.29
2022-08-24T04:08:24.340Z,19.27
2022-08-24T04:10:46.279Z,19.23
2022-08-24T04:13:08.583Z,19.21
2022-08-24T04:15:32.174Z,19.19
2022-08-24T04:17:54.054Z,19.18
2022-08-24T04:20:16.326Z,19.17
2022-08-24T04:22:38.681Z,19.16
2022-08-24T04:25:00.753Z,19.16
2022-08-24T04:27:24.830Z,19.15
2022-08-24T04:29:46.857Z,19.15
2022-08-24T04:32:08.860Z,19.14
2022-08-24T04:34:31.080Z,19.15
2022-08-24T04:36:53.734Z,19.16
2022-08-24T04:39:15.673Z,19.16
2022-08-24T04:41:43.485Z,19.15
2022-08-24T04:44:06.758Z,19.16
2022-08-24T04:46:30.325Z,19.17
2022-08-24T04:48:52.134Z,19.17
2022-08-24T04:51:18.953Z,19.19
2022-08-24T04:53:42.613Z,19.18
2022-08-24T04:56:11.635Z,19.17
2022-08-24T04:58:33.519Z,19.14
2022-08-24T05:00:56.250Z,19.12
2022-08-24T05:03:18.297Z,19.08
2022-08-24T05:05:46.211Z,19.05
2022-08-24T05:08:10.205Z,19.03
2022-08-24T05:10:33.687Z,19.00
2022-08-24T05:12:55.936Z,18.98
2022-08-24T05:15:18.073Z,18.98
2022-08-24T05:17:41.429Z,18.99
2022-08-24T05:20:06.070Z,19.00
2022-08-24T05:22:27.998Z,19.03
2022-08-24T05:24:51.512Z,19.05
2022-08-24T05:27:14.252Z,19.10
2022-08-24T05:29:37.531Z,19.15
2022-08-24T05:32:00.875Z,19.19
2022-08-24T05:34:24.902Z,19.26
2022-08-24T05:36:47.032Z,19.31
2022-08-24T05:39:28.493Z,19.39
2022-08-24T05:41:52.007Z,19.45
2022-08-24T05:44:19.424Z,19.54
2022-08-24T05:46:43.402Z,19.62
2022-08-24T05:49:05.905Z,19.72
2022-08-24T05:51:29.801Z,19.81
2022-08-24T05:53:59.276Z,19.89
2022-08-24T05:56:31.760Z,19.94
2022-08-24T05:58:55.521Z,20.02
2022-08-24T06:01:22.611Z,20.08
2022-08-24T06:03:45.616Z,20.15
2022-08-24T06:06:11.108Z,20.23
2022-08-24T06:08:41.259Z,20.31
2022-08-24T06:11:15.064Z,20.40
2022-08-24T06:13:37.568Z,20.49
2022-08-24T06:16:21.482Z,20.62
2022-08-24T06:18:44.549Z,20.70
2022-08-24T06:21:10.557Z,20.80
2022-08-24T06:23:34.952Z,20.90
2022-08-24T06:26:22.959Z,21.01
2022-08-24T06:28:45.784Z,21.12
2022-08-24T06:31:07.898Z,21.23
2022-08-24T06:33:31.674Z,21.35
2022-08-24T06:35:54.680Z,21.47
2022-08-24T06:38:19.881Z,21.61
2022-08-24T06:40:42.923Z,21.72
2022-08-24T06:43:06.160Z,21.88
2022-08-24T06:45:48.661Z,22.06
2022-08-24T06:48:13.026Z,22.22
2022-08-24T06:50:35.672Z,22.41
2022-08-24T06:52:57.549Z,22.62
2022-08-24T06:55:20.900Z,22.80
2022-08-24T06:57:42.989Z,22.99
2022-08-24T07:00:08.162Z,23.18
2022-08-24T07:02:31.233Z,23.29
2022-08-24T07:04:53.226Z,23.38
2022-08-24T07:07:33.539Z,23.46
2022-08-24T07:09:55.905Z,23.55
2022-08-24T07:12:17.948Z,23.64
2022-08-24T07:14:40.018Z,23.74
2022-08-24T07:17:01.938Z,23.86
2022-08-24T07:19:25.358Z,23.92
2022-08-24T07:21:47.372Z,24.01
2022-08-24T07:24:10.728Z,24.09
2022-08-24T07:26:34.801Z,24.21
2022-08-24T07:29:06.042Z,24.37
2022-08-24T07:31:39.637Z,24.58
2022-08-24T07:34:12.580Z,24.74
2022-08-24T07:36:41.021Z,24.90
2022-08-24T07:39:06.810Z,25.06
2022-08-24T07:41:51.543Z,25.19
2022-08-24T07:44:15.608Z,25.34
2022-08-24T07:46:39.732Z,25.46
2022-08-24T07:49:11.526Z,25.54
2022-08-24T07:51:34.806Z,25.63
2022-08-24T07:53:56.926Z,25.73
2022-08-24T07:56:23.892Z,25.90
2022-08-24T07:58:48.237Z,26.06
2022-08-24T08:01:10.851Z,26.20
2022-08-24T08:03:34.159Z,26.36
2022-08-24T08:05:58.438Z,26.51
2022-08-24T08:08:20.322Z,26.59
2022-08-24T08:10:42.349Z,26.69
2022-08-24T08:13:05.928Z,26.86
2022-08-24T08:15:28.113Z,26.94
2022-08-24T08:17:58.234Z,27.01
2022-08-24T08:20:20.669Z,27.11
2022-08-24T08:23:01.083Z,27.25
2022-08-24T08:25:57.977Z,27.53
2022-08-24T08:28:36.170Z,27.75
2022-08-24T08:31:05.359Z,27.92
2022-08-24T08:33:30.248Z,28.09
2022-08-24T08:36:10.655Z,28.22
2022-08-24T08:38:40.924Z,28.27
2022-08-24T08:41:17.997Z,28.38
2022-08-24T08:44:07.407Z,28.51
2022-08-24T08:46:57.794Z,28.68
2022-08-24T08:50:08.171Z,28.90
2022-08-24T08:52:48.220Z,29.02
2022-08-24T08:55:53.301Z,29.17
2022-08-24T08:58:57.510Z,29.27
2022-08-24T09:02:01.847Z,29.44
2022-08-24T09:05:20.669Z,29.59
2022-08-24T09:07:57.531Z,29.64
2022-08-24T09:10:55.995Z,29.64
2022-08-24T09:14:14.581Z,29.60
2022-08-24T09:16:47.649Z,29.55
2022-08-24T09:19:37.878Z,29.59
2022-08-24T09:22:19.386Z,29.59
2022-08-24T09:24:53.429Z,29.62
2022-08-24T09:28:00.585Z,29.77
2022-08-24T09:30:29.951Z,29.97
2022-08-24T09:32:58.205Z,30.12
2022-08-24T09:35:48.357Z,30.27
2022-08-24T09:38:55.563Z,30.40
2022-08-24T09:41:35.809Z,30.41
2022-08-24T09:44:19.209Z,30.42
2022-08-24T09:47:08.693Z,30.49
2022-08-24T09:49:58.335Z,30.54
2022-08-24T09:53:06.991Z,30.69
2022-08-24T09:55:40.906Z,30.85
2022-08-24T09:58:35.574Z,31.05
2022-08-24T10:01:22.500Z,31.17
2022-08-24T10:04:12.438Z,31.30
2022-08-24T10:07:18.979Z,31.44
2022-08-24T10:10:29.931Z,31.44
2022-08-24T10:13:29.646Z,31.48
2022-08-24T10:16:16.047Z,31.45
2022-08-24T10:19:05.784Z,31.31
2022-08-24T10:21:58.602Z,31.22
2022-08-24T10:24:40.353Z,31.20
2022-08-24T10:27:38.954Z,31.22
2022-08-24T10:30:59.798Z,31.34
2022-08-24T10:33:59.206Z,31.50
2022-08-24T10:36:50.320Z,31.66
2022-08-24T10:39:43.994Z,31.88
2022-08-24T10:42:56.298Z,31.95
2022-08-24T10:45:58.633Z,31.95
2022-08-24T10:49:25.644Z,32.03
2022-08-24T10:52:20.139Z,32.13
2022-08-24T10:54:42.574Z,32.17
2022-08-24T10:57:35.799Z,32.03
2022-08-24T11:00:22.943Z,31.90
2022-08-24T11:02:47.755Z,31.73
2022-08-24T11:05:22.080Z,31.55
2022-08-24T11:08:07.463Z,31.51
2022-08-24T11:10:35.469Z,31.59
2022-08-24T11:13:26.747Z,31.81
2022-08-24T11:16:00.314Z,32.00
2022-08-24T11:18:23.128Z,32.08
2022-08-24T11:20:48.780Z,32.12
2022-08-24T11:23:17.211Z,32.12
2022-08-24T11:26:03.009Z,31.97
2022-08-24T11:28:44.443Z,31.81
2022-08-24T11:31:19.714Z,31.70
2022-08-24T11:33:49.934Z,31.57
2022-08-24T11:36:28.063Z,31.44
2022-08-24T11:39:26.546Z,31.33
2022-08-24T11:42:20.812Z,31.26
2022-08-24T11:45:15.283Z,31.10
2022-08-24T11:47:39.842Z,31.01
2022-08-24T11:50:41.277Z,31.01
2022-08-24T11:53:23.657Z,31.00
2022-08-24T11:56:08.143Z,31.17
2022-08-24T11:58:54.601Z,31.44
2022-08-24T12:01:45.044Z,31.74
2022-08-24T12:04:26.101Z,31.96
2022-08-24T12:07:05.521Z,32.16
2022-08-24T12:10:21.294Z,32.41
2022-08-24T12:12:55.200Z,32.56
2022-08-24T12:15:41.279Z,32.60
2022-08-24T12:18:54.091Z,32.71
2022-08-24T12:21:25.597Z,32.89
2022-08-24T12:23:59.075Z,33.01
2022-08-24T12:27:08.279Z,33.11
2022-08-24T12:29:44.717Z,33.20
2022-08-24T12:32:19.059Z,33.39
2022-08-24T12:35:02.188Z,33.51
2022-08-24T12:37:38.465Z,33.48
2022-08-24T12:40:25.496Z,33.43
2022-08-24T12:43:18.090Z,33.46
2022-08-24T12:45:40.578Z,33.55
2022-08-24T12:48:16.236Z,33.55
2022-08-24T12:50:51.521Z,33.57
2022-08-24T12:53:19.385Z,33.69
2022-08-24T12:56:02.993Z,33.80
2022-08-24T12:58:54.395Z,33.95
2022-08-24T13:01:20.964Z,33.97
2022-08-24T13:04:05.319Z,34.09
2022-08-24T13:06:48.898Z,34.15
2022-08-24T13:09:52.413Z,34.13
2022-08-24T13:12:33.072Z,34.15
2022-08-24T13:15:23.898Z,34.09
2022-08-24T13:17:46.303Z,33.98
2022-08-24T13:20:49.865Z,34.04
2022-08-24T13:23:11.788Z,34.03
2022-08-24T13:25:51.700Z,34.08
2022-08-24T13:28:22.672Z,34.15
2022-08-24T13:30:56.484Z,34.18
2022-08-24T13:33:25.067Z,34.22
2022-08-24T13:36:28.839Z,34.27
2022-08-24T13:39:05.161Z,34.32
2022-08-24T13:41:55.485Z,34.25
2022-08-24T13:44:51.339Z,34.21
2022-08-24T13:48:07.132Z,34.24
2022-08-24T13:51:14.219Z,34.18
2022-08-24T13:54:40.458Z,34.02
2022-08-24T13:57:32.210Z,34.05
2022-08-24T14:00:12.633Z,34.17
2022-08-24T14:03:08.942Z,34.31
2022-08-24T14:05:45.924Z,34.26
2022-08-24T14:08:44.652Z,34.14
2022-08-24T14:11:16.208Z,34.00
2022-08-24T14:14:24.345Z,34.07
2022-08-24T14:17:35.761Z,33.79
2022-08-24T14:20:22.348Z,33.83
2022-08-24T14:23:02.974Z,33.87
2022-08-24T14:25:33.783Z,33.82
2022-08-24T14:27:55.516Z,33.97
2022-08-24T14:30:17.258Z,33.99
2022-08-24T14:32:59.586Z,34.03
2022-08-24T14:35:42.573Z,34.12
2022-08-24T14:38:23.094Z,34.18
2022-08-24T14:41:32.466Z,34.06
2022-08-24T14:44:07.764Z,33.99
2022-08-24T14:46:45.100Z,33.98
2022-08-24T14:49:56.198Z,34.06
2022-08-24T14:52:42.826Z,34.20
2022-08-24T14:55:38.280Z,34.06
2022-08-24T14:58:29.185Z,33.98
2022-08-24T15:01:32.809Z,34.06
2022-08-24T15:04:16.664Z,34.20
2022-08-24T15:07:21.172Z,34.22
2022-08-24T15:09:44.995Z,34.10
2022-08-24T15:12:17.144Z,34.19
2022-08-24T15:14:53.480Z,34.27
2022-08-24T15:17:29.074Z,34.28
2022-08-24T15:20:16.076Z,34.38
2022-08-24T15:23:18.901Z,34.49
2022-08-24T15:25:59.354Z,34.45
2022-08-24T15:28:30.005Z,34.35
2022-08-24T15:31:01.638Z,34.31
2022-08-24T15:33:25.201Z,34.15
2022-08-24T15:36:12.264Z,33.96
2022-08-24T15:38:38.311Z,33.86
2022-08-24T15:41:14.239Z,33.83
2022-08-24T15:44:07.737Z,33.77
2022-08-24T15:46:45.494Z,33.71
2022-08-24T15:49:24.714Z,33.76
2022-08-24T15:52:00.667Z,33.79
2022-08-24T15:54:25.538Z,33.75
2022-08-24T15:56:51.428Z,33.69
2022-08-24T15:59:28.092Z,33.68
2022-08-24T16:02:29.823Z,33.61
2022-08-24T16:05:01.473Z,33.62
2022-08-24T16:07:31.288Z,33.70
2022-08-24T16:10:12.911Z,33.72
2022-08-24T16:12:35.490Z,33.72
2022-08-24T16:15:11.887Z,33.72
2022-08-24T16:17:39.887Z,33.70
2022-08-24T16:20:27.063Z,33.67
2022-08-24T16:22:58.458Z,33.64
2022-08-24T16:25:49.220Z,33.64
2022-08-24T16:28:36.775Z,33.70
2022-08-24T16:31:07.707Z,33.71
2022-08-24T16:33:37.364Z,33.64
2022-08-24T16:36:09.975Z,33.57
2022-08-24T16:38:34.444Z,33.46
2022-08-24T16:41:02.139Z,33.41
2022-08-24T16:43:24.193Z,33.43
2022-08-24T16:45:46.974Z,33.43
2022-08-24T16:48:08.962Z,33.44
2022-08-24T16:50:31.120Z,33.47
2022-08-24T16:52:52.987Z,33.47
2022-08-24T16:55:16.849Z,33.44
2022-08-24T16:57:39.633Z,33.40
2022-08-24T17:00:01.507Z,33.43
2022-08-24T17:02:25.971Z,33.43
2022-08-24T17:04:49.815Z,33.44
2022-08-24T17:07:19.988Z,33.45
2022-08-24T17:09:47.014Z,33.46
2022-08-24T17:12:09.696Z,33.45
2022-08-24T17:14:31.957Z,33.44
2022-08-24T17:16:54.875Z,33.42
2022-08-24T17:19:20.533Z,33.39
2022-08-24T17:21:42.814Z,33.32
2022-08-24T17:24:07.442Z,33.24
2022-08-24T17:26:31.928Z,33.20
2022-08-24T17:28:55.403Z,33.17
2022-08-24T17:31:17.432Z,33.14
2022-08-24T17:33:40.546Z,33.08
2022-08-24T17:36:06.837Z,33.03
2022-08-24T17:38:51.710Z,32.93
2022-08-24T17:41:18.444Z,32.80
2022-08-24T17:43:41.438Z,32.69
2022-08-24T17:46:03.764Z,32.55
2022-08-24T17:48:26.801Z,32.41
2022-08-24T17:50:48.734Z,32.27
2022-08-24T17:53:10.894Z,32.12
2022-08-24T17:55:32.995Z,31.98
2022-08-24T17:57:54.835Z,31.86
2022-08-24T18:00:17.198Z,31.73
2022-08-24T18:02:41.651Z,31.59
2022-08-24T18:05:04.417Z,31.44
2022-08-24T18:07:42.724Z,31.29
2022-08-24T18:10:14.678Z,31.10
2022-08-24T18:12:36.623Z,30.93
2022-08-24T18:14:58.598Z,30.79
2022-08-24T18:17:34.062Z,30.67
2022-08-24T18:19:56.466Z,30.52
2022-08-24T18:22:19.571Z,30.35
2022-08-24T18:24:42.392Z,30.21
2022-08-24T18:27:16.228Z,30.10
2022-08-24T18:29:42.538Z,29.99
2022-08-24T18:32:05.581Z,29.82
2022-08-24T18:34:30.798Z,29.69
2022-08-24T18:36:52.904Z,29.52
2022-08-24T18:39:15.276Z,29.35
2022-08-24T18:41:41.682Z,29.25
2022-08-24T18:44:15.561Z,29.10
2022-08-24T18:46:38.773Z,28.94
2022-08-24T18:49:01.867Z,28.83
2022-08-24T18:51:24.730Z,28.73
2022-08-24T18:54:07.591Z,28.65
2022-08-24T18:56:29.465Z,28.61
2022-08-24T18:58:51.286Z,28.56
2022-08-24T19:01:13.845Z,28.51
2022-08-24T19:03:36.252Z,28.44
2022-08-24T19:05:58.408Z,28.36
2022-08-24T19:08:20.516Z,28.30
2022-08-24T19:10:42.477Z,28.23
2022-08-24T19:13:18.203Z,28.15
2022-08-24T19:15:40.627Z,28.11
2022-08-24T19:18:03.936Z,28.05
2022-08-24T19:20:27.506Z,28.01
2022-08-24T19:22:53.293Z,27.95
2022-08-24T19:25:27.468Z,27.90
2022-08-24T19:27:53.675Z,27.81
2022-08-24T19:30:17.205Z,27.73
2022-08-24T19:32:41.399Z,27.66
2022-08-24T19:35:03.612Z,27.61
2022-08-24T19:37:25.493Z,27.56
2022-08-24T19:39:47.970Z,27.50
2022-08-24T19:42:12.653Z,27.45
2022-08-24T19:44:55.552Z,27.44
2022-08-24T19:47:18.109Z,27.39
2022-08-24T19:49:41.054Z,27.36
2022-08-24T19:52:03.997Z,27.33
2022-08-24T19:54:36.482Z,27.28
2022-08-24T19:56:59.830Z,27.22
2022-08-24T19:59:28.239Z,27.18
2022-08-24T20:01:50.232Z,27.11
2022-08-24T20:04:12.997Z,27.06
2022-08-24T20:06:39.681Z,27.00
2022-08-24T20:09:04.137Z,26.95
2022-08-24T20:11:25.996Z,26.88
2022-08-24T20:13:50.236Z,26.79
2022-08-24T20:16:16.012Z,26.72
2022-08-24T20:18:39.611Z,26.66
2022-08-24T20:21:02.174Z,26.61
2022-08-24T20:23:26.067Z,26.58
2022-08-24T20:25:48.114Z,26.56
2022-08-24T20:28:28.716Z,26.56
2022-08-24T20:30:51.586Z,26.55
2022-08-24T20:33:21.130Z,26.55
2022-08-24T20:35:45.652Z,26.52
2022-08-24T20:38:07.905Z,26.51
2022-08-24T20:40:29.868Z,26.50
2022-08-24T20:42:51.737Z,26.48
2022-08-24T20:45:14.944Z,26.47
2022-08-24T20:47:45.985Z,26.45
2022-08-24T20:50:09.190Z,26.42
2022-08-24T20:52:31.013Z,26.39
2022-08-24T20:54:52.892Z,26.37
2022-08-24T20:57:19.792Z,26.32
2022-08-24T20:59:41.739Z,26.26
2022-08-24T21:02:04.202Z,26.19
2022-08-24T21:04:26.114Z,26.13
2022-08-24T21:06:51.650Z,26.06
2022-08-24T21:09:14.344Z,26.00
2022-08-24T21:11:37.732Z,25.88
2022-08-24T21:14:01.254Z,25.79
2022-08-24T21:16:23.197Z,25.70
2022-08-24T21:18:46.921Z,25.68
2022-08-24T21:21:10.321Z,25.68
2022-08-24T21:23:34.141Z,25.71
2022-08-24T21:26:00.724Z,25.75
2022-08-24T21:28:24.376Z,25.79
2022-08-24T21:30:46.298Z,25.82
2022-08-24T21:33:26.779Z,25.87
2022-08-24T21:35:48.613Z,25.89
2022-08-24T21:38:13.874Z,25.92
2022-08-24T21:40:37.003Z,25.93
2022-08-24T21:42:58.940Z,25.94
2022-08-24T21:45:22.917Z,25.94
2022-08-24T21:47:44.985Z,25.95
2022-08-24T21:50:09.469Z,25.95
2022-08-24T21:52:31.519Z,25.91
2022-08-24T21:54:56.371Z,25.88
2022-08-24T21:57:18.421Z,25.87
2022-08-24T21:59:40.333Z,25.85
2022-08-24T22:02:02.293Z,25.81
2022-08-24T22:04:24.238Z,25.79
2022-08-24T22:06:46.099Z,25.78
2022-08-24T22:09:08.155Z,25.75
2022-08-24T22:11:31.133Z,25.69
2022-08-24T22:13:54.843Z,25.66
2022-08-24T22:16:17.802Z,25.62
2022-08-24T22:18:41.357Z,25.58
2022-08-24T22:21:15.425Z,25.53
2022-08-24T22:23:37.701Z,25.47
2022-08-24T22:25:59.566Z,25.39
2022-08-24T22:28:22.005Z,25.36
2022-08-24T22:30:47.983Z,25.33
2022-08-24T22:33:10.897Z,25.30
2022-08-24T22:35:34.530Z,25.28
2022-08-24T22:38:06.701Z,25.26
2022-08-24T22:40:28.573Z,25.22
2022-08-24T22:42:50.506Z,25.18
2022-08-24T22:45:12.489Z,25.14
2022-08-24T22:47:34.407Z,25.10
2022-08-24T22:49:56.253Z,25.07
2022-08-24T22:52:18.667Z,25.04
2022-08-24T22:54:41.425Z,25.00
2022-08-24T22:57:04.027Z,24.96
2022-08-24T22:59:37.094Z,24.92
2022-08-24T23:01:59.005Z,24.87
2022-08-24T23:04:36.124Z,24.84
2022-08-24T23:06:58.523Z,24.77
2022-08-24T23:09:20.757Z,24.74
2022-08-24T23:11:44.361Z,24.70
2022-08-24T23:14:09.241Z,24.65
2022-08-24T23:16:35.205Z,24.62
2022-08-24T23:19:16.026Z,24.57
2022-08-24T23:21:38.106Z,24.53
2022-08-24T23:24:00.163Z,24.48
2022-08-24T23:26:22.697Z,24.42
2022-08-24T23:28:45.169Z,24.33
2022-08-24T23:31:13.521Z,24.28
2022-08-24T23:33:38.226Z,24.21
2022-08-24T23:36:25.058Z,24.15
2022-08-24T23:38:49.034Z,24.11
2022-08-24T23:41:18.491Z,24.09
2022-08-24T23:43:42.243Z,24.05
2022-08-24T23:46:05.459Z,23.99
2022-08-24T23:48:28.058Z,23.93
2022-08-24T23:50:50.107Z,23.91
2022-08-24T23:53:12.075Z,23.88
2022-08-24T23:55:34.115Z,23.85
2022-08-24T23:57:55.999Z,23.85
